Time;durP1;ratioP1;P1;durP2;ratioP2;P2;SDS_P1;SDS_P2;PMS_P1;PMS_P2;Temp;Humidity;BMP_temperature;BMP_pressure;BME280_temperature;BME280_humidity;BME280_pressure;Samples;Min_cycle;Max_cycle;Signal;HPM_P1;HPM_P2
2023/12/06 00:05:27;;;;;;;;;;;;;;;3.57;75.00;97242.94;4968236;28;19958;-86
2023/12/06 00:08:16;;;;;;;;;;;;;;;3.64;75.36;97245.28;4969581;28;19929;-85
2023/12/06 00:11:05;;;;;;;;;;;;;;;3.65;75.03;97242.31;4969366;28;19928;-86
2023/12/06 00:14:19;;;;;;;;;;;;;;;3.71;75.13;97242.28;4968940;28;20223;-85
2023/12/06 00:17:11;;;;;;;;;;;;;;;3.48;75.04;97250.00;4970722;28;20372;-85
2023/12/06 00:26:27;;;;;;;;;;;;;;;3.62;75.01;97247.44;4971656;28;20049;-88
2023/12/06 00:29:40;;;;;;;;;;;;;;;3.74;74.97;97253.25;4965254;28;20352;-86
2023/12/06 00:32:29;;;;;;;;;;;;;;;3.73;74.02;97253.53;4954239;28;19933;-87
2023/12/06 00:35:17;;;;;;;;;;;;;;;3.81;74.03;97252.94;4957378;28;19929;-86
2023/12/06 00:38:05;;;;;;;;;;;;;;;3.64;74.42;97259.53;4970225;28;19976;-87
2023/12/06 00:40:55;;;;;;;;;;;;;;;3.36;75.55;97253.06;4970405;28;19997;-87
2023/12/06 00:43:45;;;;;;;;;;;;;;;3.32;75.89;97253.88;4968950;28;19926;-84
2023/12/06 00:53:01;;;;;;;;;;;;;;;3.56;74.97;97267.38;4967965;28;20032;-86
2023/12/06 00:55:49;;;;;;;;;;;;;;;3.37;75.75;97260.03;4969905;28;19922;-86
2023/12/06 00:58:37;;;;;;;;;;;;;;;3.51;75.42;97268.22;4968952;28;19922;-84
2023/12/06 01:01:27;;;;;;;;;;;;;;;3.26;75.59;97261.19;4971308;28;19941;-86
2023/12/06 01:04:16;;;;;;;;;;;;;;;3.26;76.20;97266.56;4958989;28;20315;-88
2023/12/06 01:07:04;;;;;;;;;;;;;;;3.33;76.20;97266.22;4967919;28;20439;-88
2023/12/06 01:09:53;;;;;;;;;;;;;;;3.35;76.05;97264.06;4957703;28;19926;-87
2023/12/06 01:12:41;;;;;;;;;;;;;;;3.07;76.21;97265.59;4972629;28;20356;-86
2023/12/06 01:19:08;;;;;;;;;;;;;;;3.48;75.73;97274.16;4951818;28;19938;-88
2023/12/06 01:21:57;;;;;;;;;;;;;;;3.49;75.62;97278.44;4953843;28;19945;-87
2023/12/06 01:28:26;;;;;;;;;;;;;;;3.39;75.46;97282.00;4956477;28;20328;-88
2023/12/06 01:31:15;;;;;;;;;;;;;;;3.40;75.08;97286.28;4971431;28;20376;-86
2023/12/06 01:34:03;;;;;;;;;;;;;;;3.26;75.31;97274.59;4969645;28;20182;-87
2023/12/06 01:36:53;;;;;;;;;;;;;;;2.82;76.15;97282.63;4972041;28;19926;-84
2023/12/06 01:39:42;;;;;;;;;;;;;;;3.08;76.20;97286.78;4970708;28;19937;-87
2023/12/06 01:42:31;;;;;;;;;;;;;;;3.23;75.47;97285.88;4968479;28;20287;-87
2023/12/06 01:45:20;;;;;;;;;;;;;;;3.26;74.93;97289.91;4970639;28;19923;-87
2023/12/06 01:48:10;;;;;;;;;;;;;;;3.28;75.00;97280.47;4968547;28;19932;-87
2023/12/06 01:50:58;;;;;;;;;;;;;;;3.16;75.54;97285.41;4972694;28;19926;-88
2023/12/06 01:53:50;;;;;;;;;;;;;;;3.10;75.26;97279.28;4959443;28;19926;-90
2023/12/06 01:56:38;;;;;;;;;;;;;;;3.22;75.50;97286.97;4968999;28;19941;-82
2023/12/06 01:59:26;;;;;;;;;;;;;;;3.24;75.09;97284.81;4960738;28;20258;-85
2023/12/06 02:05:29;;;;;;;;;;;;;;;3.31;74.97;97288.00;4968873;28;19929;-88
2023/12/06 02:08:17;;;;;;;;;;;;;;;3.29;75.04;97292.03;4953956;28;20032;-87
2023/12/06 02:11:07;;;;;;;;;;;;;;;3.39;74.33;97289.25;4954001;28;20305;-86
2023/12/06 02:14:20;;;;;;;;;;;;;;;3.18;75.53;97282.44;4953275;28;20034;-86
2023/12/06 02:17:11;;;;;;;;;;;;;;;3.19;75.62;97284.03;4967772;28;19933;-87
2023/12/06 02:20:01;;;;;;;;;;;;;;;3.31;75.02;97279.94;4971195;28;19922;-87
2023/12/06 02:22:49;;;;;;;;;;;;;;;3.19;75.43;97278.66;4971249;28;20043;-88
2023/12/06 02:25:42;;;;;;;;;;;;;;;3.27;75.44;97275.41;4972047;28;20013;-88
2023/12/06 02:28:30;;;;;;;;;;;;;;;3.24;75.37;97281.31;4970842;28;19922;-88
2023/12/06 02:31:18;;;;;;;;;;;;;;;3.32;75.15;97284.22;4964843;28;19976;-87
2023/12/06 02:34:08;;;;;;;;;;;;;;;3.42;74.46;97280.66;4970423;28;20276;-88
2023/12/06 02:36:56;;;;;;;;;;;;;;;3.49;74.61;97286.50;4956671;28;20441;-86
2023/12/06 02:39:46;;;;;;;;;;;;;;;3.38;74.64;97283.09;4972062;28;20017;-88
2023/12/06 02:42:36;;;;;;;;;;;;;;;3.31;75.22;97288.00;4956747;28;19929;-83
2023/12/06 02:45:25;;;;;;;;;;;;;;;3.26;75.59;97284.53;4971578;28;19992;-87
2023/12/06 02:48:13;;;;;;;;;;;;;;;3.33;75.32;97285.03;4966680;28;19965;-87
2023/12/06 02:51:02;;;;;;;;;;;;;;;3.30;75.44;97281.03;4968589;28;19976;-88
2023/12/06 02:53:50;;;;;;;;;;;;;;;3.39;75.14;97287.38;4971984;28;20073;-85
2023/12/06 02:56:38;;;;;;;;;;;;;;;3.18;76.24;97290.50;4972414;28;19922;-86
2023/12/06 02:59:28;;;;;;;;;;;;;;;3.31;75.68;97293.38;4955314;28;19926;-87
2023/12/06 03:02:42;;;;;;;;;;;;;;;3.33;75.61;97285.03;4970003;28;20406;-86
2023/12/06 03:05:30;;;;;;;;;;;;;;;3.39;75.11;97283.91;4968959;28;19969;-87
2023/12/06 03:08:18;;;;;;;;;;;;;;;3.47;75.17;97280.63;4967531;28;20539;-87
2023/12/06 03:11:31;;;;;;;;;;;;;;;3.38;75.62;97284.97;4967103;28;19982;-87
2023/12/06 03:14:20;;;;;;;;;;;;;;;3.42;75.19;97288.72;4956304;28;19929;-88
2023/12/06 03:17:10;;;;;;;;;;;;;;;3.36;75.69;97282.59;4968734;28;19953;-84
2023/12/06 03:19:58;;;;;;;;;;;;;;;3.43;75.28;97293.00;4964875;28;20483;-83
2023/12/06 03:22:47;;;;;;;;;;;;;;;3.26;76.08;97295.28;4952895;28;19937;-87
2023/12/06 03:26:00;;;;;;;;;;;;;;;3.14;76.69;97288.38;4966379;28;20025;-87
2023/12/06 03:28:48;;;;;;;;;;;;;;;3.24;76.81;97289.38;4966537;28;19926;-86
2023/12/06 03:31:36;;;;;;;;;;;;;;;3.18;76.91;97299.34;4956774;28;19922;-87
2023/12/06 03:34:25;;;;;;;;;;;;;;;3.33;76.30;97299.25;4967995;28;20020;-86
2023/12/06 03:37:14;;;;;;;;;;;;;;;3.39;76.69;97300.00;4965441;28;19922;-88
2023/12/06 03:40:07;;;;;;;;;;;;;;;3.38;76.22;97298.41;4964823;28;19922;-87
2023/12/06 03:42:55;;;;;;;;;;;;;;;3.38;76.18;97298.41;4968752;28;20061;-81
2023/12/06 03:45:45;;;;;;;;;;;;;;;3.54;75.67;97301.78;4972768;28;19926;-87
2023/12/06 03:48:33;;;;;;;;;;;;;;;3.56;75.57;97304.97;4961136;28;20426;-86
2023/12/06 03:51:23;;;;;;;;;;;;;;;3.58;76.22;97306.31;4966673;28;19941;-87
2023/12/06 03:54:16;;;;;;;;;;;;;;;3.65;75.54;97306.00;4968631;28;19934;-87
2023/12/06 03:57:05;;;;;;;;;;;;;;;3.72;75.30;97302.97;4972594;28;19928;-88
2023/12/06 04:00:18;;;;;;;;;;;;;;;3.80;75.58;97305.88;4972070;28;19922;-87
2023/12/06 04:03:08;;;;;;;;;;;;;;;3.74;75.35;97309.69;4967356;28;19969;-87
2023/12/06 04:06:02;;;;;;;;;;;;;;;3.79;75.38;97309.66;4965875;28;20006;-87
2023/12/06 04:08:51;;;;;;;;;;;;;;;3.78;74.82;97308.03;4971518;28;19929;-87
2023/12/06 04:11:39;;;;;;;;;;;;;;;3.81;75.18;97312.03;4971289;28;19922;-88
2023/12/06 04:14:27;;;;;;;;;;;;;;;3.76;75.13;97309.41;4967183;28;20006;-86
2023/12/06 04:17:16;;;;;;;;;;;;;;;3.83;74.93;97316.03;4970162;28;19926;-87
2023/12/06 04:20:08;;;;;;;;;;;;;;;3.87;74.80;97314.38;4969761;28;19926;-87
2023/12/06 04:22:59;;;;;;;;;;;;;;;3.82;74.95;97319.00;4969002;28;19926;-87
2023/12/06 04:25:49;;;;;;;;;;;;;;;3.64;75.73;97321.31;4969862;28;19926;-88
2023/12/06 04:28:37;;;;;;;;;;;;;;;3.67;75.76;97322.63;4955130;28;20144;-88
2023/12/06 04:31:28;;;;;;;;;;;;;;;3.63;75.69;97321.59;4966940;28;19926;-83
2023/12/06 04:34:22;;;;;;;;;;;;;;;3.77;75.69;97327.13;4967885;28;20272;-86
2023/12/06 04:37:10;;;;;;;;;;;;;;;3.75;75.25;97329.28;4960336;28;19942;-88
2023/12/06 04:39:58;;;;;;;;;;;;;;;3.60;75.45;97331.00;4967312;28;19926;-87
2023/12/06 04:42:48;;;;;;;;;;;;;;;3.74;75.49;97331.19;4972545;28;19926;-87
2023/12/06 04:45:37;;;;;;;;;;;;;;;3.49;75.37;97331.38;4962840;28;20292;-88
2023/12/06 04:48:26;;;;;;;;;;;;;;;3.61;75.24;97340.66;4956298;28;19926;-86
2023/12/06 04:51:16;;;;;;;;;;;;;;;3.37;75.59;97332.50;4963905;28;20009;-89
2023/12/06 04:54:05;;;;;;;;;;;;;;;3.54;75.77;97342.06;4968853;28;20024;-88
2023/12/06 04:56:54;;;;;;;;;;;;;;;3.60;75.45;97341.75;4960239;28;20576;-89
2023/12/06 04:59:43;;;;;;;;;;;;;;;3.12;76.62;97344.19;4966527;28;20080;-86
2023/12/06 05:02:57;;;;;;;;;;;;;;;3.34;76.42;97341.13;4967041;28;19922;-84
2023/12/06 05:05:45;;;;;;;;;;;;;;;3.32;76.51;97342.50;4969149;28;20305;-87
2023/12/06 05:08:33;;;;;;;;;;;;;;;3.19;76.79;97349.25;4967263;28;20009;-88
2023/12/06 05:11:21;;;;;;;;;;;;;;;3.52;76.09;97347.72;4971951;28;19930;-88
2023/12/06 05:17:24;;;;;;;;;;;;;;;3.42;76.50;97348.59;4968930;28;19986;-90
2023/12/06 05:20:12;;;;;;;;;;;;;;;3.38;76.50;97346.75;4961474;28;19922;-87
2023/12/06 05:23:00;;;;;;;;;;;;;;;3.77;75.66;97348.59;4968098;28;20364;-88
2023/12/06 05:25:49;;;;;;;;;;;;;;;4.04;74.40;97354.28;4969761;28;20005;-90
2023/12/06 05:28:38;;;;;;;;;;;;;;;4.07;74.21;97356.41;4968370;28;20000;-89
2023/12/06 05:31:27;;;;;;;;;;;;;;;4.11;73.50;97351.28;4968956;28;19922;-86
2023/12/06 05:34:17;;;;;;;;;;;;;;;4.15;73.45;97350.41;4969770;28;20393;-88
2023/12/06 05:37:05;;;;;;;;;;;;;;;4.31;72.94;97352.97;4968120;28;19934;-82
2023/12/06 05:39:53;;;;;;;;;;;;;;;4.26;72.69;97353.00;4949936;28;20146;-85
2023/12/06 05:42:42;;;;;;;;;;;;;;;4.11;74.21;97354.78;4964465;28;19923;-83
2023/12/06 05:45:31;;;;;;;;;;;;;;;4.22;73.07;97360.06;4966618;28;19967;-87
2023/12/06 05:48:20;;;;;;;;;;;;;;;4.22;73.11;97362.75;4971185;28;20439;-86
2023/12/06 05:51:10;;;;;;;;;;;;;;;4.20;73.06;97360.31;4966992;28;19922;-85
2023/12/06 05:54:03;;;;;;;;;;;;;;;4.21;73.00;97359.25;4972469;28;20559;-84
2023/12/06 05:56:51;;;;;;;;;;;;;;;4.18;73.25;97360.63;4969585;28;20288;-84
2023/12/06 05:59:39;;;;;;;;;;;;;;;4.21;73.03;97359.25;4958291;28;20319;-80
2023/12/06 06:05:42;;;;;;;;;;;;;;;4.25;72.90;97359.47;4962879;28;20651;-82
2023/12/06 06:08:31;;;;;;;;;;;;;;;4.17;73.41;97369.78;4969404;28;20064;-80
2023/12/06 06:11:20;;;;;;;;;;;;;;;4.23;73.04;97369.72;4973753;28;20293;-83
2023/12/06 06:14:33;;;;;;;;;;;;;;;4.27;72.85;97363.50;4974308;28;20033;-84
2023/12/06 06:17:21;;;;;;;;;;;;;;;4.29;73.20;97368.59;4970729;28;20101;-83
2023/12/06 06:20:11;;;;;;;;;;;;;;;4.30;72.82;97372.88;4969739;28;19926;-82
2023/12/06 06:22:59;;;;;;;;;;;;;;;4.34;72.74;97372.03;4956152;28;19934;-84
2023/12/06 06:25:48;;;;;;;;;;;;;;;4.44;72.88;97380.00;4966704;28;19937;-85
2023/12/06 06:28:38;;;;;;;;;;;;;;;4.51;72.35;97374.28;4969677;28;20369;-85
2023/12/06 06:31:27;;;;;;;;;;;;;;;4.54;72.45;97379.09;4966859;28;19937;-84
2023/12/06 06:34:16;;;;;;;;;;;;;;;4.59;72.65;97381.75;4971298;28;19922;-85
2023/12/06 06:37:04;;;;;;;;;;;;;;;4.67;72.28;97381.09;4969042;28;19922;-81
2023/12/06 06:39:52;;;;;;;;;;;;;;;4.49;72.87;97378.34;4969544;28;19926;-86
2023/12/06 06:42:42;;;;;;;;;;;;;;;4.42;72.77;97384.88;4969267;28;19944;-86
2023/12/06 06:45:30;;;;;;;;;;;;;;;4.56;72.63;97393.06;4969416;28;19941;-86
2023/12/06 06:48:18;;;;;;;;;;;;;;;4.45;73.40;97397.72;4971164;28;20054;-86
2023/12/06 06:51:09;;;;;;;;;;;;;;;4.47;73.55;97384.81;4968803;28;19922;-86
2023/12/06 06:53:57;;;;;;;;;;;;;;;4.49;73.24;97402.56;4971635;28;19926;-87
2023/12/06 06:56:45;;;;;;;;;;;;;;;4.20;74.31;97396.06;4971130;28;19957;-86
2023/12/06 06:59:34;;;;;;;;;;;;;;;4.36;74.22;97394.06;4970439;28;20382;-86
2023/12/06 07:02:48;;;;;;;;;;;;;;;4.51;73.60;97409.25;4973624;28;20001;-86
2023/12/06 07:06:02;;;;;;;;;;;;;;;4.37;73.80;97403.75;4968075;28;20012;-86
2023/12/06 07:08:50;;;;;;;;;;;;;;;4.42;73.97;97413.63;4969327;28;20031;-86
2023/12/06 07:11:38;;;;;;;;;;;;;;;4.58;73.03;97416.97;4973314;28;20000;-86
2023/12/06 07:14:27;;;;;;;;;;;;;;;4.65;73.06;97410.19;4964451;28;19949;-85
2023/12/06 07:17:19;;;;;;;;;;;;;;;4.62;72.68;97424.19;4970883;28;19922;-87
2023/12/06 07:20:09;;;;;;;;;;;;;;;4.53;73.04;97425.09;4968208;28;19922;-86
2023/12/06 07:23:22;;;;;;;;;;;;;;;4.58;73.15;97416.97;4971469;28;20324;-86
2023/12/06 07:26:36;;;;;;;;;;;;;;;4.58;73.31;97419.66;4967431;28;20408;-87
2023/12/06 07:29:27;;;;;;;;;;;;;;;4.32;73.70;97427.19;4958421;28;19922;-88
2023/12/06 07:32:16;;;;;;;;;;;;;;;4.51;73.63;97422.69;4968620;28;19926;-87
2023/12/06 07:35:07;;;;;;;;;;;;;;;4.43;74.04;97426.00;4967594;28;19930;-88
2023/12/06 07:37:55;;;;;;;;;;;;;;;4.57;73.47;97426.94;4948091;28;19960;-86
2023/12/06 07:40:44;;;;;;;;;;;;;;;4.59;73.01;97427.47;4958267;28;20047;-85
2023/12/06 07:43:32;;;;;;;;;;;;;;;4.45;73.65;97437.28;4960784;28;19969;-84
2023/12/06 07:46:21;;;;;;;;;;;;;;;4.60;73.14;97431.75;4961350;28;19969;-86
2023/12/06 07:49:10;;;;;;;;;;;;;;;4.59;73.22;97434.75;4970643;28;20271;-87
2023/12/06 07:51:59;;;;;;;;;;;;;;;4.47;73.40;97435.94;4968423;28;19922;-84
2023/12/06 07:54:48;;;;;;;;;;;;;;;4.41;73.87;97436.25;4957253;28;19929;-85
2023/12/06 07:57:38;;;;;;;;;;;;;;;4.53;73.49;97430.47;4962857;28;19930;-87
2023/12/06 08:00:27;;;;;;;;;;;;;;;4.32;74.85;97436.06;4952059;28;19923;-87
2023/12/06 08:03:16;;;;;;;;;;;;;;;4.52;73.81;97440.44;4951913;28;19944;-86
2023/12/06 08:06:06;;;;;;;;;;;;;;;4.52;73.65;97437.75;4953849;28;19922;-85
2023/12/06 08:08:55;;;;;;;;;;;;;;;4.53;74.00;97446.63;4967338;28;19929;-86
2023/12/06 08:11:46;;;;;;;;;;;;;;;4.59;73.93;97445.50;4967136;28;19923;-85
2023/12/06 08:21:03;;;;;;;;;;;;;;;4.72;72.85;97451.00;4967720;28;20292;-81
2023/12/06 08:23:51;;;;;;;;;;;;;;;4.82;73.20;97449.31;4954690;28;20274;-85
2023/12/06 08:26:41;;;;;;;;;;;;;;;4.88;72.88;97450.84;4954566;28;19922;-85
2023/12/06 08:29:31;;;;;;;;;;;;;;;4.89;72.32;97452.44;4967690;28;19930;-83
2023/12/06 08:32:19;;;;;;;;;;;;;;;4.76;72.68;97462.00;4961503;28;19935;-84
2023/12/06 08:35:09;;;;;;;;;;;;;;;4.86;72.83;97461.91;4961073;28;20402;-84
2023/12/06 08:37:58;;;;;;;;;;;;;;;4.86;72.87;97458.41;4970561;28;19922;-81
2023/12/06 08:40:46;;;;;;;;;;;;;;;4.81;73.22;97463.84;4969124;28;19930;-83
2023/12/06 08:43:37;;;;;;;;;;;;;;;4.79;73.05;97464.13;4967220;28;20289;-84
2023/12/06 08:46:25;;;;;;;;;;;;;;;4.80;72.85;97467.63;4956591;28;19922;-84
2023/12/06 08:49:14;;;;;;;;;;;;;;;4.83;72.90;97470.53;4970714;28;19922;-84
2023/12/06 08:52:04;;;;;;;;;;;;;;;4.90;72.97;97467.50;4968614;28;19933;-84
2023/12/06 08:54:52;;;;;;;;;;;;;;;4.86;73.08;97464.59;4961419;28;19926;-83
2023/12/06 08:57:43;;;;;;;;;;;;;;;4.85;73.13;97475.66;4966553;28;20021;-85
2023/12/06 09:00:33;;;;;;;;;;;;;;;4.52;73.72;97475.41;4964422;28;19926;-84
2023/12/06 09:03:22;;;;;;;;;;;;;;;4.49;74.24;97476.00;4970378;28;19934;-85
2023/12/06 09:06:10;;;;;;;;;;;;;;;4.76;73.96;97478.16;4965795;28;20407;-86
2023/12/06 09:08:58;;;;;;;;;;;;;;;4.73;73.59;97476.81;4968048;28;20390;-85
2023/12/06 09:11:46;;;;;;;;;;;;;;;4.76;74.08;97486.22;4969778;28;19969;-82
2023/12/06 09:14:38;;;;;;;;;;;;;;;4.92;73.49;97482.31;4958148;28;19953;-85
2023/12/06 09:17:28;;;;;;;;;;;;;;;4.89;73.50;97479.38;4970480;28;20303;-83
2023/12/06 09:20:17;;;;;;;;;;;;;;;4.97;73.23;97489.53;4958522;28;19926;-84
2023/12/06 09:23:05;;;;;;;;;;;;;;;4.87;74.29;97478.88;4958964;28;19922;-85
2023/12/06 09:25:54;;;;;;;;;;;;;;;4.84;74.38;97482.09;4972019;28;20388;-86
2023/12/06 09:28:42;;;;;;;;;;;;;;;5.07;73.41;97481.34;4966800;28;19923;-83
2023/12/06 09:31:32;;;;;;;;;;;;;;;5.10;73.19;97483.44;4970072;28;19922;-85
2023/12/06 09:34:24;;;;;;;;;;;;;;;5.05;73.11;97488.09;4968436;28;19922;-86
2023/12/06 09:37:20;;;;;;;;;;;;;;;5.11;73.33;97490.44;4957365;28;20007;-87
2023/12/06 09:40:10;;;;;;;;;;;;;;;5.12;73.25;97497.44;4970542;28;19929;-87
2023/12/06 09:43:01;;;;;;;;;;;;;;;5.09;72.53;97492.63;4959232;28;19961;-87
2023/12/06 09:45:50;;;;;;;;;;;;;;;5.10;73.03;97496.13;4963761;28;19922;-86
2023/12/06 09:49:03;;;;;;;;;;;;;;;5.02;73.17;97492.16;4971300;28;19922;-85
2023/12/06 09:51:53;;;;;;;;;;;;;;;5.10;72.74;97483.44;4955426;28;19936;-86
2023/12/06 09:54:41;;;;;;;;;;;;;;;5.07;73.42;97478.66;4960706;28;20248;-85
2023/12/06 09:57:34;;;;;;;;;;;;;;;5.14;73.21;97484.50;4972649;28;20344;-86
2023/12/06 10:00:22;;;;;;;;;;;;;;;5.12;73.48;97483.19;4967804;28;19934;-86
2023/12/06 10:03:12;;;;;;;;;;;;;;;5.13;73.36;97487.47;4963070;28;19923;-85
2023/12/06 10:06:03;;;;;;;;;;;;;;;5.21;73.64;97489.53;4968620;28;20013;-85
2023/12/06 10:08:54;;;;;;;;;;;;;;;5.13;73.76;97493.66;4970981;28;19930;-87
2023/12/06 10:11:42;;;;;;;;;;;;;;;5.11;73.55;97486.94;4955382;28;20376;-86
2023/12/06 10:14:34;;;;;;;;;;;;;;;5.16;73.38;97492.28;4972623;28;19926;-85
2023/12/06 10:17:23;;;;;;;;;;;;;;;5.20;73.94;97493.31;4972178;28;20372;-87
2023/12/06 10:20:12;;;;;;;;;;;;;;;5.29;73.26;97496.19;4951040;28;19927;-85
2023/12/06 10:26:39;;;;;;;;;;;;;;;5.20;74.40;97488.72;4966864;28;20376;-84
2023/12/06 10:29:29;;;;;;;;;;;;;;;5.41;73.82;97492.00;4969612;28;19984;-84
2023/12/06 10:32:17;;;;;;;;;;;;;;;5.38;73.98;97489.06;4971390;28;19929;-86
2023/12/06 10:35:09;;;;;;;;;;;;;;;5.37;73.61;97490.16;4970539;28;19929;-86
2023/12/06 10:37:58;;;;;;;;;;;;;;;5.47;73.21;97487.34;4970494;28;20081;-87
2023/12/06 10:40:46;;;;;;;;;;;;;;;5.32;74.20;97495.59;4962858;28;19986;-83
2023/12/06 10:43:36;;;;;;;;;;;;;;;5.03;74.55;97488.38;4972140;28;20396;-86
2023/12/06 10:46:24;;;;;;;;;;;;;;;5.19;74.47;97495.22;4967130;28;19933;-86
2023/12/06 10:49:13;;;;;;;;;;;;;;;5.37;73.73;97482.88;4953811;28;20084;-83
2023/12/06 10:52:02;;;;;;;;;;;;;;;5.31;74.15;97499.38;4966729;28;19926;-79
2023/12/06 10:54:50;;;;;;;;;;;;;;;5.10;74.97;97504.19;4967504;28;19929;-84
2023/12/06 10:57:39;;;;;;;;;;;;;;;4.97;75.78;97500.28;4957180;28;19923;-78
2023/12/06 11:00:32;;;;;;;;;;;;;;;4.82;75.77;97505.81;4966976;28;19929;-81
2023/12/06 11:03:20;;;;;;;;;;;;;;;4.81;76.19;97490.78;4969246;28;19929;-81
2023/12/06 11:06:11;;;;;;;;;;;;;;;4.78;76.14;97499.41;4967008;28;19929;-79
2023/12/06 11:09:05;;;;;;;;;;;;;;;4.99;75.92;97503.50;4953463;28;20360;-80
2023/12/06 11:11:57;;;;;;;;;;;;;;;4.96;75.82;97493.31;4969232;28;19937;-80
2023/12/06 11:14:51;;;;;;;;;;;;;;;4.98;75.57;97502.69;4953227;28;19926;-81
2023/12/06 11:17:45;;;;;;;;;;;;;;;4.99;75.58;97506.19;4962593;28;20316;-80
2023/12/06 11:20:33;;;;;;;;;;;;;;;5.02;75.30;97511.00;4965560;28;20357;-79
2023/12/06 11:26:40;;;;;;;;;;;;;;;5.10;74.79;97506.88;4960688;28;19922;-82
2023/12/06 11:29:28;;;;;;;;;;;;;;;5.33;74.11;97508.81;4972762;28;19922;-82
2023/12/06 11:32:17;;;;;;;;;;;;;;;5.14;74.33;97506.03;4969404;28;20328;-82
2023/12/06 11:35:07;;;;;;;;;;;;;;;5.11;74.87;97511.97;4971421;28;19976;-78
2023/12/06 11:37:56;;;;;;;;;;;;;;;4.81;75.66;97513.09;4970425;28;19937;-79
2023/12/06 11:40:49;;;;;;;;;;;;;;;4.97;75.47;97519.13;4954480;28;20049;-83
2023/12/06 11:43:48;;;;;;;;;;;;;;;4.99;75.57;97527.72;4967094;28;21220;-80
2023/12/06 11:46:36;;;;;;;;;;;;;;;5.06;75.18;97525.53;4963626;28;20028;-81
2023/12/06 11:52:47;;;;;;;;;;;;;;;4.75;76.37;97521.50;4969108;28;20005;-82
2023/12/06 11:55:35;;;;;;;;;;;;;;;4.93;75.51;97531.56;4970615;28;20481;-79
2023/12/06 11:58:34;;;;;;;;;;;;;;;4.81;76.10;97533.84;4957648;28;19966;-81
2023/12/06 12:01:22;;;;;;;;;;;;;;;4.70;75.74;97533.13;4972146;28;19922;-80
2023/12/06 12:04:11;;;;;;;;;;;;;;;4.64;76.60;97529.66;4968337;28;19922;-80
2023/12/06 12:07:01;;;;;;;;;;;;;;;4.77;76.71;97536.28;4968226;28;19929;-79
2023/12/06 12:09:52;;;;;;;;;;;;;;;4.76;76.56;97533.88;4961496;28;20084;-81
2023/12/06 12:12:40;;;;;;;;;;;;;;;4.75;76.25;97534.97;4958741;28;19945;-80
2023/12/06 12:15:29;;;;;;;;;;;;;;;4.76;76.21;97536.56;4967307;28;20379;-83
2023/12/06 12:18:43;;;;;;;;;;;;;;;4.99;75.63;97541.97;4968172;28;19923;-83
2023/12/06 12:21:31;;;;;;;;;;;;;;;4.81;75.76;97549.97;4967091;28;19930;-81
2023/12/06 12:24:19;;;;;;;;;;;;;;;4.75;75.75;97545.72;4971006;28;19922;-81
2023/12/06 12:30:46;;;;;;;;;;;;;;;4.59;75.84;97543.16;4965846;28;20339;-80
2023/12/06 12:33:40;;;;;;;;;;;;;;;4.56;75.31;97542.91;4964462;28;19926;-81
2023/12/06 12:36:28;;;;;;;;;;;;;;;4.47;75.66;97546.22;4965952;28;20373;-79
2023/12/06 12:39:19;;;;;;;;;;;;;;;4.54;75.95;97547.78;4955390;28;20284;-80
2023/12/06 12:42:09;;;;;;;;;;;;;;;4.52;75.87;97558.00;4971373;28;19926;-81
2023/12/06 12:44:58;;;;;;;;;;;;;;;4.45;75.97;97555.63;4969448;28;19922;-83
2023/12/06 12:47:46;;;;;;;;;;;;;;;4.40;76.13;97563.75;4969487;28;19933;-80
2023/12/06 12:50:37;;;;;;;;;;;;;;;4.31;76.14;97565.41;4961880;28;19930;-81
2023/12/06 12:53:27;;;;;;;;;;;;;;;4.35;76.34;97569.16;4962223;28;20338;-79
2023/12/06 12:56:19;;;;;;;;;;;;;;;4.23;76.77;97571.38;4974124;28;19969;-79
2023/12/06 12:59:09;;;;;;;;;;;;;;;4.06;76.14;97577.94;4971535;28;19923;-80
2023/12/06 13:01:58;;;;;;;;;;;;;;;4.04;77.09;97569.31;4974292;28;20356;-81
2023/12/06 13:05:35;;;;;;;;;;;;;;;4.14;75.82;97576.53;4964042;28;19928;-83
2023/12/06 13:08:24;;;;;;;;;;;;;;;4.09;75.51;97587.31;4969842;28;19934;-78
2023/12/06 13:11:12;;;;;;;;;;;;;;;4.00;75.44;97594.38;4975362;28;19973;-80
2023/12/06 13:14:01;;;;;;;;;;;;;;;4.01;75.13;97595.97;4960679;28;19922;-80
2023/12/06 13:17:17;;;;;;;;;;;;;;;3.71;75.71;97603.06;4972188;28;20552;-81
2023/12/06 13:20:07;;;;;;;;;;;;;;;3.66;75.33;97619.19;4972077;28;20319;-79
2023/12/06 13:22:55;;;;;;;;;;;;;;;3.67;76.12;97610.88;4973353;28;20264;-80
2023/12/06 13:25:43;;;;;;;;;;;;;;;3.66;75.95;97632.63;4969579;28;19922;-80
2023/12/06 13:28:32;;;;;;;;;;;;;;;3.88;75.18;97625.03;4971440;28;19973;-83
2023/12/06 13:31:21;;;;;;;;;;;;;;;3.81;74.71;97629.09;4971070;28;20435;-80
2023/12/06 13:34:11;;;;;;;;;;;;;;;3.70;74.84;97654.41;4958399;28;19945;-81
2023/12/06 13:36:59;;;;;;;;;;;;;;;3.55;74.77;97647.97;4968072;28;20045;-80
2023/12/06 13:39:47;;;;;;;;;;;;;;;3.33;74.23;97645.59;4973411;28;20402;-80
2023/12/06 13:42:36;;;;;;;;;;;;;;;3.44;74.71;97646.38;4968958;28;19934;-79
2023/12/06 13:45:26;;;;;;;;;;;;;;;3.30;74.41;97642.63;4970274;28;19929;-82
2023/12/06 13:48:14;;;;;;;;;;;;;;;3.46;73.33;97641.53;4971527;28;20319;-79
2023/12/06 13:51:04;;;;;;;;;;;;;;;3.50;73.29;97656.03;4958998;28;20354;-79
2023/12/06 13:53:53;;;;;;;;;;;;;;;3.45;72.51;97649.88;4971440;28;20285;-82
2023/12/06 13:56:41;;;;;;;;;;;;;;;3.34;73.25;97649.88;4964465;28;19922;-80
2023/12/06 13:59:31;;;;;;;;;;;;;;;3.35;72.87;97661.44;4968938;28;20060;-81
2023/12/06 14:02:47;;;;;;;;;;;;;;;3.13;73.82;97667.88;4971201;28;19921;-78
2023/12/06 14:06:00;;;;;;;;;;;;;;;3.45;73.18;97666.00;4959217;28;19930;-79
2023/12/06 14:08:51;;;;;;;;;;;;;;;3.32;72.94;97664.66;4972715;28;20080;-80
2023/12/06 14:11:39;;;;;;;;;;;;;;;3.41;73.45;97674.59;4969650;28;19922;-81
2023/12/06 14:14:32;;;;;;;;;;;;;;;3.50;73.35;97677.53;4956802;28;20276;-78
2023/12/06 14:17:20;;;;;;;;;;;;;;;3.53;73.10;97682.38;4972150;28;19922;-79
2023/12/06 14:20:10;;;;;;;;;;;;;;;3.17;73.63;97678.91;4956247;28;20024;-79
2023/12/06 14:22:59;;;;;;;;;;;;;;;3.15;74.22;97684.56;4959464;28;20344;-81
2023/12/06 14:25:48;;;;;;;;;;;;;;;3.15;73.70;97691.81;4975267;28;19929;-80
2023/12/06 14:28:37;;;;;;;;;;;;;;;3.06;74.25;97688.84;4971499;28;20280;-79
2023/12/06 14:31:25;;;;;;;;;;;;;;;3.42;73.91;97694.19;4972552;28;20300;-81
2023/12/06 14:34:14;;;;;;;;;;;;;;;3.30;73.92;97696.34;4970401;28;19998;-81
2023/12/06 14:37:02;;;;;;;;;;;;;;;3.33;74.05;97695.81;4970338;28;20377;-80
2023/12/06 14:39:53;;;;;;;;;;;;;;;3.20;74.15;97709.78;4971350;28;19961;-78
2023/12/06 14:42:42;;;;;;;;;;;;;;;3.30;74.18;97709.75;4968195;28;19963;-80
2023/12/06 14:45:30;;;;;;;;;;;;;;;3.34;73.85;97710.84;4967780;28;19930;-81
2023/12/06 14:48:18;;;;;;;;;;;;;;;3.25;73.67;97723.19;4969514;28;19934;-80
2023/12/06 14:51:07;;;;;;;;;;;;;;;3.21;73.94;97722.13;4964390;28;19934;-81
2023/12/06 14:53:55;;;;;;;;;;;;;;;3.26;74.10;97741.72;4954705;28;20383;-79
2023/12/06 14:56:43;;;;;;;;;;;;;;;3.25;74.07;97733.94;4969131;28;19957;-81
2023/12/06 14:59:33;;;;;;;;;;;;;;;3.23;74.02;97736.88;4969080;28;19930;-81
2023/12/06 15:02:47;;;;;;;;;;;;;;;3.14;73.93;97736.63;4966524;28;19922;-80
2023/12/06 15:06:25;;;;;;;;;;;;;;;3.15;74.29;97746.28;4968308;28;19937;-81
2023/12/06 15:09:14;;;;;;;;;;;;;;;3.24;74.03;97751.91;4959697;28;20012;-82
2023/12/06 15:12:06;;;;;;;;;;;;;;;3.39;73.65;97753.81;4973211;28;20435;-82
2023/12/06 15:14:56;;;;;;;;;;;;;;;3.44;73.19;97758.38;4965571;28;19945;-79
2023/12/06 15:17:44;;;;;;;;;;;;;;;3.45;72.89;97754.63;4963750;28;20305;-81
2023/12/06 15:20:32;;;;;;;;;;;;;;;3.58;72.85;97760.25;4965608;28;19922;-81
2023/12/06 15:23:47;;;;;;;;;;;;;;;3.46;72.89;97758.91;4970802;28;19989;-80
2023/12/06 15:26:36;;;;;;;;;;;;;;;3.45;73.01;97763.47;4967891;28;19964;-78
2023/12/06 15:32:44;;;;;;;;;;;;;;;3.44;73.29;97774.50;4963628;28;19922;-83
2023/12/06 15:35:33;;;;;;;;;;;;;;;3.48;72.94;97778.25;4964192;28;20291;-80
2023/12/06 15:38:21;;;;;;;;;;;;;;;3.52;72.40;97779.34;4963880;28;19930;-80
2023/12/06 15:41:34;;;;;;;;;;;;;;;3.57;72.39;97782.84;4965760;28;19942;-81
2023/12/06 15:44:25;;;;;;;;;;;;;;;3.65;72.24;97787.66;4970371;28;19922;-80
2023/12/06 15:47:13;;;;;;;;;;;;;;;3.76;71.85;97790.34;4971002;28;19934;-80
2023/12/06 15:53:15;;;;;;;;;;;;;;;3.75;71.74;97791.41;4968302;28;19929;-82
2023/12/06 15:56:05;;;;;;;;;;;;;;;3.72;72.08;97795.44;4971370;28;20368;-79
2023/12/06 15:58:54;;;;;;;;;;;;;;;3.91;71.63;97803.75;4966538;28;20042;-79
2023/12/06 16:01:44;;;;;;;;;;;;;;;3.72;71.59;97805.38;4967945;28;19929;-79
2023/12/06 16:04:33;;;;;;;;;;;;;;;3.78;71.79;97804.28;4967332;28;20491;-80